createdAt,value
2019-03-06T00:00:55.026Z,87.36
2019-03-06T00:06:16.416Z,87.10
2019-03-06T00:08:36.995Z,87.05
2019-03-06T00:11:03.809Z,86.82
2019-03-06T00:13:30.786Z,86.59
2019-03-06T00:15:57.485Z,85.90
2019-03-06T00:18:24.175Z,86.77
2019-03-06T00:20:51.027Z,85.90
2019-03-06T00:23:17.825Z,86.68
2019-03-06T00:25:44.639Z,86.97
2019-03-06T00:28:11.623Z,87.24
2019-03-06T00:30:38.448Z,87.77
2019-03-06T00:33:05.212Z,87.81
2019-03-06T00:35:35.937Z,87.68
2019-03-06T00:38:02.776Z,87.36
2019-03-06T00:40:53.226Z,85.33
2019-03-06T00:43:20.006Z,85.06
2019-03-06T00:45:46.825Z,85.60
2019-03-06T00:48:13.531Z,86.20
2019-03-06T00:50:40.334Z,86.80
2019-03-06T00:53:07.013Z,86.93
2019-03-06T00:55:33.807Z,86.43
2019-03-06T00:58:00.597Z,86.50
2019-03-06T01:00:27.393Z,86.50
2019-03-06T01:02:54.492Z,87.23
2019-03-06T01:05:23.516Z,87.25
2019-03-06T01:07:50.249Z,88.03
2019-03-06T01:10:17.147Z,87.89
2019-03-06T01:12:44.123Z,87.80
2019-03-06T01:15:11.456Z,87.96
2019-03-06T01:17:38.042Z,88.10
2019-03-06T01:20:05.078Z,88.63
2019-03-06T01:22:31.778Z,88.25
2019-03-06T01:24:58.598Z,87.81
2019-03-06T01:27:25.374Z,87.74
2019-03-06T01:29:52.607Z,88.07
2019-03-06T01:32:19.632Z,87.99
2019-03-06T01:35:05.880Z,88.17
2019-03-06T01:37:50.848Z,88.42
2019-03-06T01:40:23.433Z,89.06
2019-03-06T01:42:57.724Z,89.14
2019-03-06T01:45:24.519Z,89.44
2019-03-06T01:47:51.337Z,89.31
2019-03-06T01:50:18.131Z,89.13
2019-03-06T01:52:45.038Z,88.56
2019-03-06T01:55:13.381Z,88.80
2019-03-06T01:57:40.056Z,88.82
2019-03-06T02:00:08.798Z,89.16
2019-03-06T02:02:35.578Z,89.61
2019-03-06T02:05:23.770Z,89.68
2019-03-06T02:07:50.561Z,90.02
2019-03-06T02:10:18.027Z,89.96
2019-03-06T02:12:44.866Z,89.86
2019-03-06T02:15:13.668Z,88.90
2019-03-06T02:17:41.275Z,88.64
2019-03-06T02:20:09.937Z,88.67
2019-03-06T02:22:36.637Z,88.76
2019-03-06T02:25:03.690Z,88.45
2019-03-06T02:27:30.387Z,88.74
2019-03-06T02:29:57.357Z,89.03
2019-03-06T02:32:24.052Z,88.37
2019-03-06T02:34:50.830Z,88.37
2019-03-06T02:37:17.527Z,87.77
2019-03-06T02:39:44.106Z,87.96
2019-03-06T02:42:10.801Z,87.82
2019-03-06T02:44:39.987Z,88.14
2019-03-06T02:47:06.082Z,88.26
2019-03-06T02:49:32.766Z,88.62
2019-03-06T02:51:59.377Z,89.15
2019-03-06T02:54:26.055Z,89.50
2019-03-06T02:56:52.757Z,89.44
2019-03-06T02:59:34.165Z,89.48
2019-03-06T03:02:20.513Z,89.47
2019-03-06T03:05:05.539Z,89.63
2019-03-06T03:07:32.346Z,89.80
2019-03-06T03:09:59.151Z,90.03
2019-03-06T03:12:25.941Z,90.13
2019-03-06T03:14:52.624Z,89.91
2019-03-06T03:17:19.430Z,89.41
2019-03-06T03:19:46.527Z,89.13
2019-03-06T03:22:13.322Z,88.84
2019-03-06T03:24:40.427Z,88.96
2019-03-06T03:27:07.247Z,89.13
2019-03-06T03:29:33.931Z,89.05
2019-03-06T03:32:00.562Z,88.17
2019-03-06T03:34:27.510Z,87.99
2019-03-06T03:36:54.204Z,87.54
2019-03-06T03:39:21.001Z,87.58
2019-03-06T03:41:47.812Z,87.80
2019-03-06T03:44:14.598Z,86.93
2019-03-06T03:46:41.413Z,84.88
2019-03-06T03:49:28.021Z,84.53
2019-03-06T03:51:54.865Z,83.96
2019-03-06T03:54:21.536Z,83.90
2019-03-06T03:56:48.378Z,83.51
2019-03-06T03:59:15.219Z,83.21
2019-03-06T04:01:42.323Z,82.91
2019-03-06T04:04:09.196Z,83.11
2019-03-06T04:06:36.002Z,82.37
2019-03-06T04:09:04.205Z,81.97
2019-03-06T04:11:30.797Z,81.99
2019-03-06T04:13:57.596Z,81.91
2019-03-06T04:16:24.344Z,81.95
2019-03-06T04:18:51.066Z,81.32
2019-03-06T04:21:37.382Z,81.60
2019-03-06T04:24:04.194Z,81.39
2019-03-06T04:26:31.007Z,81.27
2019-03-06T04:28:58.096Z,81.44
2019-03-06T04:31:24.888Z,81.42
2019-03-06T04:33:51.491Z,82.11
2019-03-06T04:36:18.191Z,81.76
2019-03-06T04:38:44.897Z,81.91
2019-03-06T04:41:11.474Z,81.95
2019-03-06T04:44:05.374Z,82.09
2019-03-06T04:46:32.263Z,82.34
2019-03-06T04:48:59.063Z,82.69
2019-03-06T04:51:25.653Z,82.58
2019-03-06T04:53:52.677Z,83.16
2019-03-06T04:56:19.369Z,82.84
2019-03-06T04:58:46.075Z,82.99
2019-03-06T05:01:12.666Z,83.08
2019-03-06T05:03:39.353Z,82.94
2019-03-06T05:06:06.141Z,83.84
2019-03-06T05:08:32.855Z,84.08
2019-03-06T05:10:59.534Z,84.44
2019-03-06T05:13:26.123Z,84.17
2019-03-06T05:15:52.939Z,84.51
2019-03-06T05:18:33.253Z,84.51
2019-03-06T05:20:59.999Z,84.96
2019-03-06T05:23:26.691Z,84.91
2019-03-06T05:25:53.287Z,84.95
2019-03-06T05:28:20.083Z,85.34
2019-03-06T05:30:46.908Z,85.27
2019-03-06T05:33:13.727Z,85.61
2019-03-06T05:36:11.646Z,85.62
2019-03-06T05:39:00.796Z,85.60
2019-03-06T05:41:27.606Z,85.98
2019-03-06T05:43:54.191Z,86.03
2019-03-06T05:46:20.887Z,86.05
2019-03-06T05:48:47.594Z,85.94
2019-03-06T05:51:14.172Z,85.91
2019-03-06T05:53:40.775Z,85.91
2019-03-06T05:56:07.471Z,85.69
2019-03-06T05:58:34.433Z,85.47
2019-03-06T06:01:01.241Z,85.64
2019-03-06T06:03:27.919Z,85.31
2019-03-06T06:05:54.617Z,85.19
2019-03-06T06:08:21.220Z,85.37
2019-03-06T06:10:47.907Z,85.19
2019-03-06T06:13:14.602Z,85.14
2019-03-06T06:15:41.373Z,85.11
2019-03-06T06:18:08.052Z,84.88
2019-03-06T06:20:34.852Z,85.08
2019-03-06T06:23:09.382Z,84.67
2019-03-06T06:25:36.279Z,84.64
2019-03-06T06:28:03.158Z,84.40
2019-03-06T06:30:30.063Z,84.43
2019-03-06T06:32:56.757Z,84.33
2019-03-06T06:35:23.862Z,84.36
2019-03-06T06:37:50.588Z,83.97
2019-03-06T06:40:17.467Z,84.04
2019-03-06T06:42:44.253Z,83.74
2019-03-06T06:45:11.069Z,83.96
2019-03-06T06:48:05.929Z,84.09
2019-03-06T06:50:32.675Z,83.71
2019-03-06T06:53:37.334Z,83.63
2019-03-06T06:56:29.861Z,83.63
2019-03-06T06:59:12.794Z,83.34
2019-03-06T07:02:29.188Z,83.35
2019-03-06T07:05:18.803Z,82.79
2019-03-06T07:08:01.397Z,82.93
2019-03-06T07:10:56.949Z,82.80
2019-03-06T07:13:52.297Z,82.47
2019-03-06T07:16:47.381Z,82.70
2019-03-06T07:19:36.695Z,82.30
2019-03-06T07:22:10.241Z,81.89
2019-03-06T07:24:57.643Z,81.35
2019-03-06T07:27:59.135Z,81.91
2019-03-06T07:30:34.249Z,81.17
2019-03-06T07:33:10.600Z,80.81
2019-03-06T07:36:04.140Z,80.37
2019-03-06T07:38:30.845Z,80.64
2019-03-06T07:41:14.672Z,80.32
2019-03-06T07:43:50.186Z,79.93
2019-03-06T07:46:29.448Z,79.66
2019-03-06T07:49:12.865Z,79.13
2019-03-06T07:52:17.353Z,78.50
2019-03-06T07:54:53.568Z,78.22
2019-03-06T07:57:28.721Z,77.16
2019-03-06T07:59:55.608Z,76.98
2019-03-06T08:02:27.688Z,75.66
2019-03-06T08:04:54.452Z,75.38
2019-03-06T08:07:21.487Z,74.80
2019-03-06T08:09:48.687Z,74.92
2019-03-06T08:12:47.201Z,74.41
2019-03-06T08:15:31.965Z,73.70
2019-03-06T08:18:17.092Z,72.80
2019-03-06T08:21:00.432Z,72.64
2019-03-06T08:24:04.804Z,72.29
2019-03-06T08:26:31.594Z,72.87
2019-03-06T08:28:58.257Z,72.79
2019-03-06T08:31:42.791Z,72.12
2019-03-06T08:34:09.564Z,71.11
2019-03-06T08:36:36.416Z,69.97
2019-03-06T08:39:11.943Z,70.68
2019-03-06T08:41:38.634Z,69.30
2019-03-06T08:44:05.331Z,68.35
2019-03-06T08:46:50.327Z,67.91
2019-03-06T08:49:42.497Z,66.76
2019-03-06T08:52:23.103Z,67.85
2019-03-06T08:55:12.078Z,67.93
2019-03-06T08:57:47.487Z,68.93
2019-03-06T09:00:46.457Z,69.21
2019-03-06T09:03:22.036Z,69.87
2019-03-06T09:06:17.324Z,68.40
2019-03-06T09:09:02.356Z,65.60
2019-03-06T09:11:36.637Z,66.45
2019-03-06T09:14:23.179Z,64.85
2019-03-06T09:17:15.636Z,63.55
2019-03-06T09:20:02.073Z,62.75
2019-03-06T09:22:42.179Z,61.11
2019-03-06T09:25:47.175Z,61.99
2019-03-06T09:28:33.614Z,59.99
2019-03-06T09:31:07.170Z,58.92
2019-03-06T09:34:00.141Z,57.01
2019-03-06T09:36:38.557Z,55.39
2019-03-06T09:39:20.739Z,55.65
2019-03-06T09:42:16.215Z,56.16
2019-03-06T09:44:51.199Z,56.07
2019-03-06T09:47:42.746Z,57.47
2019-03-06T09:50:24.927Z,58.61
2019-03-06T09:53:08.477Z,57.48
2019-03-06T09:55:52.298Z,58.54
2019-03-06T09:58:34.106Z,59.42
2019-03-06T10:01:23.088Z,60.11
2019-03-06T10:04:03.656Z,60.98
2019-03-06T10:07:05.135Z,62.43
2019-03-06T10:09:59.127Z,62.10
2019-03-06T10:12:33.907Z,61.36
2019-03-06T10:15:32.097Z,60.39
2019-03-06T10:18:02.400Z,58.68
2019-03-06T10:20:29.309Z,57.94
2019-03-06T10:22:59.513Z,57.33
2019-03-06T10:25:30.131Z,57.43
2019-03-06T10:27:53.792Z,56.26
2019-03-06T10:30:20.874Z,55.57
2019-03-06T10:32:47.753Z,56.04
2019-03-06T10:35:14.908Z,57.94
2019-03-06T10:37:41.708Z,57.47
2019-03-06T10:40:11.451Z,57.43
2019-03-06T10:42:38.102Z,56.02
2019-03-06T10:45:05.097Z,56.40
2019-03-06T10:47:31.680Z,55.43
2019-03-06T10:49:58.481Z,54.05
2019-03-06T10:52:25.347Z,50.25
2019-03-06T10:54:52.153Z,50.63
2019-03-06T10:57:18.913Z,50.82
2019-03-06T10:59:45.708Z,51.40
2019-03-06T11:02:12.786Z,53.35
2019-03-06T11:04:53.340Z,54.17
2019-03-06T11:07:20.523Z,54.57
2019-03-06T11:09:48.684Z,53.83
2019-03-06T11:12:15.467Z,52.65
2019-03-06T11:14:44.463Z,51.85
2019-03-06T11:17:11.212Z,51.14
2019-03-06T11:19:38.204Z,49.87
2019-03-06T11:22:05.830Z,48.67
2019-03-06T11:24:32.637Z,49.11
2019-03-06T11:26:59.471Z,48.38
2019-03-06T11:29:26.564Z,46.15
2019-03-06T11:31:53.433Z,44.92
2019-03-06T11:34:20.422Z,45.97
2019-03-06T11:36:47.215Z,45.20
2019-03-06T11:39:14.005Z,44.14
2019-03-06T11:41:40.776Z,43.34
2019-03-06T11:44:07.837Z,44.54
2019-03-06T11:46:34.607Z,41.52
2019-03-06T11:49:01.286Z,40.01
2019-03-06T11:51:28.066Z,42.35
2019-03-06T11:53:54.826Z,42.72
2019-03-06T11:56:21.625Z,43.63
2019-03-06T11:58:48.726Z,42.18
2019-03-06T12:01:17.161Z,40.39
2019-03-06T12:03:44.002Z,39.92
2019-03-06T12:06:10.796Z,40.46
2019-03-06T12:08:45.667Z,41.69
2019-03-06T12:11:06.981Z,41.59
2019-03-06T12:13:33.745Z,42.40
2019-03-06T12:16:00.532Z,43.37
2019-03-06T12:18:27.325Z,44.30
2019-03-06T12:20:54.241Z,45.04
2019-03-06T12:23:21.030Z,45.38
2019-03-06T12:25:47.920Z,47.12
2019-03-06T12:28:15.369Z,47.89
2019-03-06T12:30:42.256Z,47.81
2019-03-06T12:33:12.434Z,47.45
2019-03-06T12:35:39.151Z,48.29
2019-03-06T12:38:05.944Z,48.15
2019-03-06T12:40:33.331Z,47.70
2019-03-06T12:42:59.993Z,46.44
2019-03-06T12:45:27.389Z,44.44
2019-03-06T12:47:55.694Z,42.79
2019-03-06T12:50:23.740Z,43.57
2019-03-06T12:52:50.511Z,43.77
2019-03-06T12:55:17.516Z,44.34
2019-03-06T12:57:44.291Z,43.91
2019-03-06T13:00:19.262Z,43.45
2019-03-06T13:02:46.068Z,43.37
2019-03-06T13:05:12.845Z,44.08
2019-03-06T13:07:39.639Z,44.15
2019-03-06T13:10:08.051Z,44.77
2019-03-06T13:12:34.855Z,45.08
2019-03-06T13:15:01.536Z,45.55
2019-03-06T13:17:28.229Z,45.15
2019-03-06T13:19:55.003Z,44.94
2019-03-06T13:22:22.134Z,45.09
2019-03-06T13:24:48.908Z,44.19
2019-03-06T13:27:15.710Z,44.00
2019-03-06T13:29:45.574Z,42.83
2019-03-06T13:32:13.523Z,42.58
2019-03-06T13:34:50.732Z,42.96
2019-03-06T13:37:18.430Z,43.30
2019-03-06T13:39:44.995Z,43.62
2019-03-06T13:42:11.807Z,43.98
2019-03-06T13:44:38.599Z,44.34
2019-03-06T13:47:05.499Z,43.50
2019-03-06T13:49:32.179Z,43.58
2019-03-06T13:51:58.972Z,44.00
2019-03-06T13:54:26.151Z,42.58
2019-03-06T13:56:52.840Z,41.87
2019-03-06T13:59:19.617Z,40.89
2019-03-06T14:01:47.004Z,40.59
2019-03-06T14:04:13.767Z,39.74
2019-03-06T14:06:40.562Z,39.78
2019-03-06T14:09:08.029Z,40.44
2019-03-06T14:11:34.843Z,41.74
2019-03-06T14:14:01.736Z,42.00
2019-03-06T14:16:28.822Z,41.92
2019-03-06T14:18:55.671Z,42.76
2019-03-06T14:21:22.532Z,43.18
2019-03-06T14:23:49.231Z,42.48
2019-03-06T14:26:16.273Z,41.67
2019-03-06T14:28:43.113Z,41.83
2019-03-06T14:31:11.464Z,42.63
2019-03-06T14:33:38.462Z,42.31
2019-03-06T14:36:08.148Z,42.38
2019-03-06T14:38:35.163Z,43.05
2019-03-06T14:41:01.940Z,42.98
2019-03-06T14:43:28.743Z,43.01
2019-03-06T14:45:55.629Z,43.37
2019-03-06T14:48:22.728Z,44.21
2019-03-06T14:50:49.416Z,44.49
2019-03-06T14:53:16.210Z,44.15
2019-03-06T14:55:42.843Z,44.70
2019-03-06T14:58:09.653Z,44.19
2019-03-06T15:00:36.434Z,44.26
2019-03-06T15:03:03.242Z,44.43
2019-03-06T15:05:30.018Z,45.33
2019-03-06T15:07:56.816Z,45.61
2019-03-06T15:10:23.985Z,46.94
2019-03-06T15:12:50.784Z,47.69
2019-03-06T15:15:17.560Z,47.06
2019-03-06T15:17:44.356Z,47.66
2019-03-06T15:20:13.857Z,47.60
2019-03-06T15:22:40.934Z,47.33
2019-03-06T15:25:10.690Z,47.62
2019-03-06T15:27:37.350Z,47.88
2019-03-06T15:30:05.444Z,47.90
2019-03-06T15:32:32.141Z,47.72
2019-03-06T15:34:58.832Z,48.21
2019-03-06T15:37:25.744Z,48.13
2019-03-06T15:39:53.642Z,48.58
2019-03-06T15:42:20.478Z,49.05
2019-03-06T15:44:47.822Z,49.62
2019-03-06T15:47:14.651Z,49.30
2019-03-06T15:49:41.481Z,49.40
2019-03-06T15:52:09.389Z,49.75
2019-03-06T15:54:36.513Z,49.75
2019-03-06T15:57:03.641Z,50.41
2019-03-06T15:59:30.451Z,49.98
2019-03-06T16:01:57.440Z,49.12
2019-03-06T16:04:24.243Z,49.30
2019-03-06T16:07:10.560Z,48.87
2019-03-06T16:09:37.663Z,49.19
2019-03-06T16:12:04.441Z,48.94
2019-03-06T16:14:31.404Z,48.96
2019-03-06T16:16:58.183Z,49.47
2019-03-06T16:19:25.036Z,50.01
2019-03-06T16:21:51.603Z,49.66
2019-03-06T16:24:18.709Z,49.60
2019-03-06T16:26:45.802Z,49.71
2019-03-06T16:29:12.505Z,49.89
2019-03-06T16:31:39.286Z,49.70
2019-03-06T16:34:06.192Z,51.31
2019-03-06T16:36:32.991Z,51.31
2019-03-06T16:38:59.707Z,50.54
2019-03-06T16:41:26.472Z,52.57
2019-03-06T16:43:53.555Z,51.57
2019-03-06T16:46:20.421Z,51.06
2019-03-06T16:48:47.120Z,51.24
2019-03-06T16:51:13.901Z,50.55
2019-03-06T16:53:40.604Z,51.17
2019-03-06T16:56:07.430Z,51.81
2019-03-06T16:58:34.208Z,53.49
2019-03-06T17:01:01.412Z,54.40
2019-03-06T17:03:28.296Z,56.73
2019-03-06T17:05:55.091Z,60.30
2019-03-06T17:08:22.070Z,61.20
2019-03-06T17:10:48.962Z,64.75
2019-03-06T17:13:15.755Z,66.55
2019-03-06T17:15:42.566Z,67.41
2019-03-06T17:18:10.637Z,67.60
2019-03-06T17:20:37.539Z,69.24
2019-03-06T17:23:04.617Z,68.24
2019-03-06T17:25:31.912Z,66.72
2019-03-06T17:27:58.893Z,69.66
2019-03-06T17:30:25.926Z,68.00
2019-03-06T17:33:02.172Z,70.70
2019-03-06T17:35:29.666Z,69.93
2019-03-06T17:37:56.603Z,69.19
2019-03-06T17:40:23.597Z,68.48
2019-03-06T17:42:50.582Z,66.62
2019-03-06T17:45:17.772Z,68.62
2019-03-06T17:47:44.834Z,68.83
2019-03-06T17:50:12.002Z,68.50
2019-03-06T17:52:38.827Z,67.33
2019-03-06T17:55:05.643Z,62.99
2019-03-06T17:57:32.314Z,62.78
2019-03-06T17:59:59.430Z,63.84
2019-03-06T18:02:26.583Z,65.21
2019-03-06T18:04:53.395Z,66.02
2019-03-06T18:07:20.187Z,65.34
2019-03-06T18:09:47.059Z,68.37
2019-03-06T18:12:13.855Z,63.92
2019-03-06T18:14:40.548Z,68.56
2019-03-06T18:17:07.348Z,66.89
2019-03-06T18:19:33.926Z,67.22
2019-03-06T18:22:00.737Z,68.86
2019-03-06T18:24:27.510Z,66.49
2019-03-06T18:26:54.709Z,63.67
2019-03-06T18:29:21.376Z,63.83
2019-03-06T18:31:48.170Z,64.80
2019-03-06T18:34:14.742Z,62.25
2019-03-06T18:36:41.539Z,61.66
2019-03-06T18:39:18.621Z,59.13
2019-03-06T18:41:46.144Z,60.99
2019-03-06T18:44:12.806Z,62.45
2019-03-06T18:46:39.592Z,61.93
2019-03-06T18:49:06.270Z,62.23
2019-03-06T18:51:33.044Z,61.37
2019-03-06T18:53:59.740Z,61.53
2019-03-06T18:56:26.464Z,61.28
2019-03-06T19:01:45.198Z,65.08
2019-03-06T19:04:11.970Z,64.01
2019-03-06T19:06:39.060Z,61.23
2019-03-06T19:09:06.852Z,61.33
2019-03-06T19:11:33.651Z,62.59
2019-03-06T19:14:00.607Z,62.61
2019-03-06T19:16:27.378Z,66.24
2019-03-06T19:18:54.032Z,64.38
2019-03-06T19:21:22.725Z,61.33
2019-03-06T19:23:49.412Z,64.49
2019-03-06T19:26:16.187Z,63.38
2019-03-06T19:28:42.960Z,67.76
2019-03-06T19:31:09.953Z,66.04
2019-03-06T19:33:36.613Z,67.68
2019-03-06T19:36:03.401Z,67.02
2019-03-06T19:38:30.086Z,69.22
2019-03-06T19:40:56.873Z,68.21
2019-03-06T19:43:23.678Z,65.93
2019-03-06T19:45:50.474Z,65.18
2019-03-06T19:48:17.273Z,67.78
2019-03-06T19:50:44.630Z,66.72
2019-03-06T19:53:11.317Z,66.45
2019-03-06T19:55:38.087Z,62.83
2019-03-06T19:58:05.630Z,64.93
2019-03-06T20:00:32.952Z,65.97
2019-03-06T20:03:00.367Z,63.11
2019-03-06T20:05:30.282Z,64.50
2019-03-06T20:07:57.194Z,64.82
2019-03-06T20:10:23.964Z,64.87
2019-03-06T20:12:50.748Z,65.43
2019-03-06T20:15:17.745Z,64.43
2019-03-06T20:17:44.663Z,64.48
2019-03-06T20:20:11.844Z,65.12
2019-03-06T20:22:38.571Z,61.27
2019-03-06T20:25:05.699Z,61.44
2019-03-06T20:27:32.688Z,64.10
2019-03-06T20:29:59.452Z,65.45
2019-03-06T20:32:26.147Z,62.26
2019-03-06T20:34:52.904Z,63.16
2019-03-06T20:37:19.627Z,62.22
2019-03-06T20:39:46.412Z,63.95
2019-03-06T20:42:13.208Z,60.53
2019-03-06T20:44:40.009Z,61.08
2019-03-06T20:47:07.082Z,63.50
2019-03-06T20:49:33.675Z,61.52
2019-03-06T20:52:00.473Z,65.15
2019-03-06T20:54:27.527Z,62.39
2019-03-06T20:56:54.344Z,62.25
2019-03-06T20:59:21.022Z,65.48
2019-03-06T21:01:47.620Z,64.05
2019-03-06T21:04:15.048Z,64.56
2019-03-06T21:06:42.079Z,65.15
2019-03-06T21:09:08.773Z,66.05
2019-03-06T21:11:36.342Z,64.64
2019-03-06T21:14:03.675Z,65.86
2019-03-06T21:16:31.998Z,65.95
2019-03-06T21:18:58.996Z,66.73
2019-03-06T21:21:25.689Z,67.49
2019-03-06T21:23:52.678Z,66.16
2019-03-06T21:26:19.356Z,66.43
2019-03-06T21:28:46.031Z,67.30
2019-03-06T21:31:12.811Z,67.58
2019-03-06T21:33:39.608Z,67.29
2019-03-06T21:36:06.294Z,68.45
2019-03-06T21:38:32.927Z,69.15
2019-03-06T21:40:59.603Z,69.97
2019-03-06T21:43:26.278Z,71.55
2019-03-06T21:45:53.015Z,72.43
2019-03-06T21:48:19.806Z,72.06
2019-03-06T21:50:46.609Z,72.83
2019-03-06T21:53:13.291Z,71.61
2019-03-06T21:55:40.115Z,74.58
2019-03-06T21:58:06.865Z,73.50
2019-03-06T22:00:33.721Z,73.67
2019-03-06T22:03:00.553Z,73.99
2019-03-06T22:05:27.319Z,74.60
2019-03-06T22:07:54.027Z,75.93
2019-03-06T22:10:21.188Z,75.17
2019-03-06T22:12:47.969Z,75.69
2019-03-06T22:15:34.292Z,77.09
2019-03-06T22:18:01.121Z,77.02
2019-03-06T22:20:27.904Z,77.32
2019-03-06T22:22:54.792Z,76.21
2019-03-06T22:25:21.600Z,76.40
2019-03-06T22:27:48.364Z,77.28
2019-03-06T22:30:16.309Z,76.18
2019-03-06T22:32:43.079Z,75.36
2019-03-06T22:35:09.967Z,75.57
2019-03-06T22:37:36.658Z,75.66
2019-03-06T22:40:04.411Z,75.95
2019-03-06T22:42:31.376Z,76.01
2019-03-06T22:44:58.058Z,76.59
2019-03-06T22:47:25.235Z,76.38
2019-03-06T22:49:51.928Z,75.32
2019-03-06T22:52:18.595Z,74.35
2019-03-06T22:54:45.387Z,74.47
2019-03-06T22:57:12.160Z,74.73
2019-03-06T22:59:39.143Z,74.94
2019-03-06T23:02:06.011Z,74.20
2019-03-06T23:04:32.707Z,74.97
2019-03-06T23:06:59.471Z,74.35
2019-03-06T23:09:26.258Z,74.89
2019-03-06T23:11:53.026Z,74.99
2019-03-06T23:14:19.835Z,74.68
2019-03-06T23:16:47.044Z,75.00
2019-03-06T23:19:13.844Z,74.75
2019-03-06T23:21:40.527Z,75.61
2019-03-06T23:24:26.949Z,75.63
2019-03-06T23:26:53.521Z,74.13
2019-03-06T23:29:20.601Z,74.85
2019-03-06T23:31:47.589Z,74.58
2019-03-06T23:34:14.351Z,74.49
2019-03-06T23:36:41.036Z,74.25
2019-03-06T23:39:11.279Z,75.01
2019-03-06T23:41:38.075Z,75.39
2019-03-06T23:44:04.654Z,74.09
2019-03-06T23:46:31.538Z,74.40
2019-03-06T23:48:58.201Z,73.86
2019-03-06T23:51:44.539Z,73.75
2019-03-06T23:54:11.240Z,74.31
2019-03-06T23:56:37.903Z,73.82
2019-03-06T23:59:04.897Z,74.94
